sensor_id;sensor_type;location;lat;lon;timestamp;P1;durP1;ratioP1;P2;durP2;ratioP2
63114;SDS011;49208;50.874;6.466;2022-11-14T06:01:20;8.30;;;6.18;;
63114;SDS011;49208;50.874;6.466;2022-11-14T06:03:46;11.85;;;7.40;;
63114;SDS011;49208;50.874;6.466;2022-11-14T06:06:14;10.00;;;6.83;;
63114;SDS011;49208;50.874;6.466;2022-11-14T06:08:41;11.73;;;6.85;;
63114;SDS011;49208;50.874;6.466;2022-11-14T06:11:08;10.23;;;7.07;;
63114;SDS011;49208;50.874;6.466;2022-11-14T06:13:35;12.60;;;7.07;;
63114;SDS011;49208;50.874;6.466;2022-11-14T06:16:01;12.13;;;7.38;;
63114;SDS011;49208;50.874;6.466;2022-11-14T06:20:57;13.35;;;7.18;;
63114;SDS011;49208;50.874;6.466;2022-11-14T06:23:30;13.60;;;7.88;;
63114;SDS011;49208;50.874;6.466;2022-11-14T06:25:59;11.70;;;7.68;;
63114;SDS011;49208;50.874;6.466;2022-11-14T06:28:26;13.93;;;8.63;;
63114;SDS011;49208;50.874;6.466;2022-11-14T06:30:55;14.13;;;8.00;;
63114;SDS011;49208;50.874;6.466;2022-11-14T06:33:25;15.38;;;7.82;;
63114;SDS011;49208;50.874;6.466;2022-11-14T06:35:56;17.75;;;8.27;;
63114;SDS011;49208;50.874;6.466;2022-11-14T06:38:23;15.05;;;9.10;;
63114;SDS011;49208;50.874;6.466;2022-11-14T06:40:48;11.68;;;7.95;;
63114;SDS011;49208;50.874;6.466;2022-11-14T06:43:14;15.05;;;9.05;;
63114;SDS011;49208;50.874;6.466;2022-11-14T06:45:39;14.30;;;9.05;;
63114;SDS011;49208;50.874;6.466;2022-11-14T06:48:05;14.38;;;9.15;;
63114;SDS011;49208;50.874;6.466;2022-11-14T06:50:30;15.50;;;9.00;;
63114;SDS011;49208;50.874;6.466;2022-11-14T06:52:56;17.88;;;10.70;;
63114;SDS011;49208;50.874;6.466;2022-11-14T06:55:22;19.25;;;10.25;;
63114;SDS011;49208;50.874;6.466;2022-11-14T06:57:51;15.73;;;10.13;;
63114;SDS011;49208;50.874;6.466;2022-11-14T07:00:18;16.38;;;10.25;;
63114;SDS011;49208;50.874;6.466;2022-11-14T07:02:45;18.55;;;10.18;;
63114;SDS011;49208;50.874;6.466;2022-11-14T07:05:10;17.60;;;9.90;;
63114;SDS011;49208;50.874;6.466;2022-11-14T07:07:36;17.85;;;10.20;;
63114;SDS011;49208;50.874;6.466;2022-11-14T07:10:01;15.45;;;10.27;;
63114;SDS011;49208;50.874;6.466;2022-11-14T07:12:26;17.33;;;10.15;;
63114;SDS011;49208;50.874;6.466;2022-11-14T07:14:53;16.23;;;9.63;;
63114;SDS011;49208;50.874;6.466;2022-11-14T07:17:19;16.45;;;10.32;;
63114;SDS011;49208;50.874;6.466;2022-11-14T07:19:44;18.23;;;10.25;;
63114;SDS011;49208;50.874;6.466;2022-11-14T07:22:09;17.08;;;10.07;;
63114;SDS011;49208;50.874;6.466;2022-11-14T07:24:35;18.70;;;10.48;;
63114;SDS011;49208;50.874;6.466;2022-11-14T07:27:00;17.83;;;10.13;;
63114;SDS011;49208;50.874;6.466;2022-11-14T07:29:26;17.95;;;10.43;;
63114;SDS011;49208;50.874;6.466;2022-11-14T07:31:51;20.35;;;10.38;;
63114;SDS011;49208;50.874;6.466;2022-11-14T07:34:17;18.55;;;11.20;;
63114;SDS011;49208;50.874;6.466;2022-11-14T07:36:43;17.92;;;10.73;;
63114;SDS011;49208;50.874;6.466;2022-11-14T07:39:08;19.25;;;11.05;;
63114;SDS011;49208;50.874;6.466;2022-11-14T07:41:34;17.30;;;9.93;;
63114;SDS011;49208;50.874;6.466;2022-11-14T07:43:59;15.02;;;9.23;;
63114;SDS011;49208;50.874;6.466;2022-11-14T07:46:24;17.85;;;10.48;;
63114;SDS011;49208;50.874;6.466;2022-11-14T07:48:50;13.98;;;9.35;;
63114;SDS011;49208;50.874;6.466;2022-11-14T07:51:16;18.65;;;10.23;;
63114;SDS011;49208;50.874;6.466;2022-11-14T07:53:43;16.38;;;9.32;;
63114;SDS011;49208;50.874;6.466;2022-11-14T07:56:09;16.70;;;8.88;;
63114;SDS011;49208;50.874;6.466;2022-11-14T07:58:36;17.50;;;9.63;;
63114;SDS011;49208;50.874;6.466;2022-11-14T08:01:02;15.10;;;9.45;;
63114;SDS011;49208;50.874;6.466;2022-11-14T08:03:29;18.25;;;9.35;;
63114;SDS011;49208;50.874;6.466;2022-11-14T08:06:05;17.50;;;9.93;;
63114;SDS011;49208;50.874;6.466;2022-11-14T08:08:31;16.55;;;9.82;;
63114;SDS011;49208;50.874;6.466;2022-11-14T08:10:57;20.75;;;10.70;;
63114;SDS011;49208;50.874;6.466;2022-11-14T08:13:24;20.75;;;10.15;;
63114;SDS011;49208;50.874;6.466;2022-11-14T08:15:49;21.92;;;11.15;;
63114;SDS011;49208;50.874;6.466;2022-11-14T08:18:15;21.38;;;11.02;;
63114;SDS011;49208;50.874;6.466;2022-11-14T08:20:41;20.27;;;11.20;;
63114;SDS011;49208;50.874;6.466;2022-11-14T08:23:06;19.55;;;12.57;;
63114;SDS011;49208;50.874;6.466;2022-11-14T08:25:32;21.48;;;12.25;;
63114;SDS011;49208;50.874;6.466;2022-11-14T08:27:57;21.80;;;12.32;;
63114;SDS011;49208;50.874;6.466;2022-11-14T08:30:23;20.63;;;11.48;;
63114;SDS011;49208;50.874;6.466;2022-11-14T08:32:49;19.98;;;11.40;;
63114;SDS011;49208;50.874;6.466;2022-11-14T08:35:14;20.75;;;10.93;;
63114;SDS011;49208;50.874;6.466;2022-11-14T08:37:40;23.60;;;12.23;;
63114;SDS011;49208;50.874;6.466;2022-11-14T08:40:05;21.17;;;12.35;;
63114;SDS011;49208;50.874;6.466;2022-11-14T08:42:31;21.60;;;12.88;;
63114;SDS011;49208;50.874;6.466;2022-11-14T08:44:56;25.08;;;13.07;;
63114;SDS011;49208;50.874;6.466;2022-11-14T08:47:22;26.10;;;13.65;;
63114;SDS011;49208;50.874;6.466;2022-11-14T08:49:47;24.08;;;12.57;;
63114;SDS011;49208;50.874;6.466;2022-11-14T08:52:12;24.60;;;13.07;;
63114;SDS011;49208;50.874;6.466;2022-11-14T08:54:38;27.33;;;14.35;;
63114;SDS011;49208;50.874;6.466;2022-11-14T08:57:03;29.48;;;15.25;;
63114;SDS011;49208;50.874;6.466;2022-11-14T08:59:31;24.55;;;12.65;;
63114;SDS011;49208;50.874;6.466;2022-11-14T09:01:57;23.45;;;12.68;;
63114;SDS011;49208;50.874;6.466;2022-11-14T09:04:22;26.30;;;14.25;;
63114;SDS011;49208;50.874;6.466;2022-11-14T09:06:48;24.63;;;13.73;;
63114;SDS011;49208;50.874;6.466;2022-11-14T09:09:13;25.48;;;14.43;;
63114;SDS011;49208;50.874;6.466;2022-11-14T09:11:39;24.88;;;13.40;;
63114;SDS011;49208;50.874;6.466;2022-11-14T09:14:04;24.83;;;13.52;;
63114;SDS011;49208;50.874;6.466;2022-11-14T09:16:30;26.23;;;13.50;;
63114;SDS011;49208;50.874;6.466;2022-11-14T09:18:55;30.15;;;14.88;;
63114;SDS011;49208;50.874;6.466;2022-11-14T09:21:21;26.02;;;15.10;;
63114;SDS011;49208;50.874;6.466;2022-11-14T09:23:46;26.52;;;13.90;;
63114;SDS011;49208;50.874;6.466;2022-11-14T09:26:12;27.67;;;14.73;;
63114;SDS011;49208;50.874;6.466;2022-11-14T09:28:37;33.45;;;15.48;;
63114;SDS011;49208;50.874;6.466;2022-11-14T09:31:03;30.23;;;14.25;;
63114;SDS011;49208;50.874;6.466;2022-11-14T09:33:30;26.20;;;13.63;;
63114;SDS011;49208;50.874;6.466;2022-11-14T09:35:57;25.77;;;14.43;;
63114;SDS011;49208;50.874;6.466;2022-11-14T09:38:23;29.27;;;14.43;;
63114;SDS011;49208;50.874;6.466;2022-11-14T09:43:57;24.08;;;12.70;;
63114;SDS011;49208;50.874;6.466;2022-11-14T09:46:45;26.58;;;12.50;;
63114;SDS011;49208;50.874;6.466;2022-11-14T09:49:25;23.98;;;12.95;;
63114;SDS011;49208;50.874;6.466;2022-11-14T09:52:41;21.08;;;11.75;;
63114;SDS011;49208;50.874;6.466;2022-11-14T09:55:02;22.08;;;12.02;;
63114;SDS011;49208;50.874;6.466;2022-11-14T09:57:34;20.23;;;10.93;;
63114;SDS011;49208;50.874;6.466;2022-11-14T10:00:00;24.15;;;12.35;;
63114;SDS011;49208;50.874;6.466;2022-11-14T10:02:34;24.58;;;11.90;;
63114;SDS011;49208;50.874;6.466;2022-11-14T10:05:22;20.85;;;10.75;;
63114;SDS011;49208;50.874;6.466;2022-11-14T10:11:00;21.95;;;10.18;;
63114;SDS011;49208;50.874;6.466;2022-11-14T10:14:35;18.52;;;9.38;;
63114;SDS011;49208;50.874;6.466;2022-11-14T10:22:26;19.17;;;9.35;;
63114;SDS011;49208;50.874;6.466;2022-11-14T10:41:31;17.17;;;8.52;;
63114;SDS011;49208;50.874;6.466;2022-11-14T10:43:57;14.18;;;6.95;;
63114;SDS011;49208;50.874;6.466;2022-11-14T10:46:25;11.50;;;6.28;;
63114;SDS011;49208;50.874;6.466;2022-11-14T10:48:54;10.38;;;5.70;;
63114;SDS011;49208;50.874;6.466;2022-11-14T10:51:21;10.18;;;5.20;;
63114;SDS011;49208;50.874;6.466;2022-11-14T10:53:54;10.48;;;5.18;;
63114;SDS011;49208;50.874;6.466;2022-11-14T10:56:28;9.82;;;5.13;;
63114;SDS011;49208;50.874;6.466;2022-11-14T10:58:53;9.88;;;5.60;;
63114;SDS011;49208;50.874;6.466;2022-11-14T11:01:32;13.60;;;6.88;;
63114;SDS011;49208;50.874;6.466;2022-11-14T11:04:24;12.10;;;6.70;;
63114;SDS011;49208;50.874;6.466;2022-11-14T11:06:55;12.55;;;5.50;;
63114;SDS011;49208;50.874;6.466;2022-11-14T11:09:34;10.55;;;6.15;;
63114;SDS011;49208;50.874;6.466;2022-11-14T11:12:21;8.23;;;4.90;;
63114;SDS011;49208;50.874;6.466;2022-11-14T11:17:57;9.48;;;5.03;;
63114;SDS011;49208;50.874;6.466;2022-11-14T11:20:33;11.52;;;7.07;;
63114;SDS011;49208;50.874;6.466;2022-11-14T11:25:36;11.98;;;6.15;;
63114;SDS011;49208;50.874;6.466;2022-11-14T11:30:31;9.95;;;5.88;;
63114;SDS011;49208;50.874;6.466;2022-11-14T11:33:21;11.25;;;5.82;;
63114;SDS011;49208;50.874;6.466;2022-11-14T11:35:49;11.98;;;5.88;;
63114;SDS011;49208;50.874;6.466;2022-11-14T11:38:17;10.20;;;5.85;;
63114;SDS011;49208;50.874;6.466;2022-11-14T11:40:44;8.10;;;5.13;;
63114;SDS011;49208;50.874;6.466;2022-11-14T11:43:15;9.98;;;5.43;;
63114;SDS011;49208;50.874;6.466;2022-11-14T11:45:50;8.85;;;5.38;;
63114;SDS011;49208;50.874;6.466;2022-11-14T11:48:20;11.45;;;6.25;;
63114;SDS011;49208;50.874;6.466;2022-11-14T11:50:47;12.43;;;7.10;;
63114;SDS011;49208;50.874;6.466;2022-11-14T11:53:23;11.60;;;7.25;;
63114;SDS011;49208;50.874;6.466;2022-11-14T11:56:09;11.82;;;6.55;;
63114;SDS011;49208;50.874;6.466;2022-11-14T12:01:08;10.93;;;6.63;;
63114;SDS011;49208;50.874;6.466;2022-11-14T12:03:34;12.57;;;7.18;;
63114;SDS011;49208;50.874;6.466;2022-11-14T12:06:12;13.40;;;7.00;;
63114;SDS011;49208;50.874;6.466;2022-11-14T12:17:53;16.05;;;7.95;;
63114;SDS011;49208;50.874;6.466;2022-11-14T12:31:23;16.92;;;8.38;;
63114;SDS011;49208;50.874;6.466;2022-11-14T12:33:55;16.05;;;8.35;;
63114;SDS011;49208;50.874;6.466;2022-11-14T12:36:26;14.20;;;7.90;;
63114;SDS011;49208;50.874;6.466;2022-11-14T12:38:55;14.55;;;7.93;;
63114;SDS011;49208;50.874;6.466;2022-11-14T12:41:31;13.25;;;8.13;;
63114;SDS011;49208;50.874;6.466;2022-11-14T12:44:30;17.00;;;8.25;;
63114;SDS011;49208;50.874;6.466;2022-11-14T12:57:54;15.38;;;9.00;;
63114;SDS011;49208;50.874;6.466;2022-11-14T13:00:33;18.25;;;9.52;;
63114;SDS011;49208;50.874;6.466;2022-11-14T13:03:19;18.92;;;9.35;;
63114;SDS011;49208;50.874;6.466;2022-11-14T13:05:58;17.35;;;8.60;;
63114;SDS011;49208;50.874;6.466;2022-11-14T13:11:47;14.38;;;9.07;;
63114;SDS011;49208;50.874;6.466;2022-11-14T13:14:46;17.17;;;8.95;;
63114;SDS011;49208;50.874;6.466;2022-11-14T13:17:32;20.23;;;9.70;;
63114;SDS011;49208;50.874;6.466;2022-11-14T13:23:52;19.17;;;10.23;;
63114;SDS011;49208;50.874;6.466;2022-11-14T13:33:40;19.58;;;10.18;;
63114;SDS011;49208;50.874;6.466;2022-11-14T13:36:26;19.60;;;9.57;;
63114;SDS011;49208;50.874;6.466;2022-11-14T13:50:28;21.88;;;9.88;;
63114;SDS011;49208;50.874;6.466;2022-11-14T13:52:56;20.42;;;10.23;;
63114;SDS011;49208;50.874;6.466;2022-11-14T14:06:34;19.83;;;10.63;;
63114;SDS011;49208;50.874;6.466;2022-11-14T14:12:02;24.13;;;12.95;;
63114;SDS011;49208;50.874;6.466;2022-11-14T14:31:37;25.38;;;12.10;;
63114;SDS011;49208;50.874;6.466;2022-11-14T14:37:12;25.27;;;12.90;;
63114;SDS011;49208;50.874;6.466;2022-11-14T14:39:42;26.85;;;12.20;;
63114;SDS011;49208;50.874;6.466;2022-11-14T14:42:23;23.75;;;11.65;;
63114;SDS011;49208;50.874;6.466;2022-11-14T14:44:50;25.17;;;13.70;;
63114;SDS011;49208;50.874;6.466;2022-11-14T14:47:16;25.52;;;13.05;;
63114;SDS011;49208;50.874;6.466;2022-11-14T14:50:03;24.52;;;12.88;;
63114;SDS011;49208;50.874;6.466;2022-11-14T14:52:33;27.77;;;13.63;;
63114;SDS011;49208;50.874;6.466;2022-11-14T14:55:01;23.38;;;12.13;;
63114;SDS011;49208;50.874;6.466;2022-11-14T14:57:28;23.23;;;11.98;;
63114;SDS011;49208;50.874;6.466;2022-11-14T15:00:02;23.15;;;12.27;;
63114;SDS011;49208;50.874;6.466;2022-11-14T15:02:32;22.38;;;12.18;;
63114;SDS011;49208;50.874;6.466;2022-11-14T15:04:58;22.33;;;11.93;;
63114;SDS011;49208;50.874;6.466;2022-11-14T15:07:25;27.50;;;12.98;;
63114;SDS011;49208;50.874;6.466;2022-11-14T15:09:54;21.30;;;12.35;;
63114;SDS011;49208;50.874;6.466;2022-11-14T15:12:22;21.58;;;12.05;;
63114;SDS011;49208;50.874;6.466;2022-11-14T15:14:50;25.75;;;13.32;;
63114;SDS011;49208;50.874;6.466;2022-11-14T15:17:18;25.20;;;12.70;;
63114;SDS011;49208;50.874;6.466;2022-11-14T15:19:44;22.13;;;12.03;;
63114;SDS011;49208;50.874;6.466;2022-11-14T15:24:39;23.23;;;13.50;;
63114;SDS011;49208;50.874;6.466;2022-11-14T15:27:10;29.63;;;14.73;;
63114;SDS011;49208;50.874;6.466;2022-11-14T15:29:43;27.17;;;13.43;;
63114;SDS011;49208;50.874;6.466;2022-11-14T15:32:15;24.95;;;12.57;;
63114;SDS011;49208;50.874;6.466;2022-11-14T15:34:43;21.58;;;11.82;;
63114;SDS011;49208;50.874;6.466;2022-11-14T15:37:28;27.00;;;12.32;;
63114;SDS011;49208;50.874;6.466;2022-11-14T15:39:53;25.52;;;12.93;;
63114;SDS011;49208;50.874;6.466;2022-11-14T15:42:40;22.83;;;12.80;;
63114;SDS011;49208;50.874;6.466;2022-11-14T15:45:24;29.95;;;14.43;;
63114;SDS011;49208;50.874;6.466;2022-11-14T15:47:58;24.40;;;12.20;;
63114;SDS011;49208;50.874;6.466;2022-11-14T15:50:28;27.50;;;15.18;;
63114;SDS011;49208;50.874;6.466;2022-11-14T15:53:05;28.80;;;13.38;;
63114;SDS011;49208;50.874;6.466;2022-11-14T15:55:40;21.73;;;11.85;;
63114;SDS011;49208;50.874;6.466;2022-11-14T15:58:09;24.10;;;12.80;;
63114;SDS011;49208;50.874;6.466;2022-11-14T16:00:35;21.90;;;12.25;;
63114;SDS011;49208;50.874;6.466;2022-11-14T16:03:10;27.42;;;13.18;;
63114;SDS011;49208;50.874;6.466;2022-11-14T16:05:41;19.23;;;12.05;;
63114;SDS011;49208;50.874;6.466;2022-11-14T16:08:08;25.27;;;12.50;;
63114;SDS011;49208;50.874;6.466;2022-11-14T16:10:35;22.13;;;13.05;;
63114;SDS011;49208;50.874;6.466;2022-11-14T16:13:00;23.20;;;13.07;;
63114;SDS011;49208;50.874;6.466;2022-11-14T16:15:26;22.38;;;13.13;;
63114;SDS011;49208;50.874;6.466;2022-11-14T16:17:52;23.70;;;12.13;;
63114;SDS011;49208;50.874;6.466;2022-11-14T16:22:44;23.00;;;11.77;;
63114;SDS011;49208;50.874;6.466;2022-11-14T16:25:19;21.50;;;11.60;;
63114;SDS011;49208;50.874;6.466;2022-11-14T16:27:46;20.50;;;11.38;;
63114;SDS011;49208;50.874;6.466;2022-11-14T16:30:12;25.83;;;13.95;;
63114;SDS011;49208;50.874;6.466;2022-11-14T16:32:42;27.65;;;14.18;;
63114;SDS011;49208;50.874;6.466;2022-11-14T16:37:38;18.70;;;11.63;;
63114;SDS011;49208;50.874;6.466;2022-11-14T16:40:03;19.75;;;11.52;;
63114;SDS011;49208;50.874;6.466;2022-11-14T16:42:29;20.40;;;10.70;;
63114;SDS011;49208;50.874;6.466;2022-11-14T16:45:01;19.13;;;10.25;;
63114;SDS011;49208;50.874;6.466;2022-11-14T16:47:27;19.35;;;11.10;;
63114;SDS011;49208;50.874;6.466;2022-11-14T16:49:52;15.38;;;9.25;;
63114;SDS011;49208;50.874;6.466;2022-11-14T16:52:18;16.15;;;9.25;;
63114;SDS011;49208;50.874;6.466;2022-11-14T16:54:43;14.50;;;8.05;;
63114;SDS011;49208;50.874;6.466;2022-11-14T16:57:09;14.90;;;7.75;;
63114;SDS011;49208;50.874;6.466;2022-11-14T16:59:35;10.63;;;6.40;;
63114;SDS011;49208;50.874;6.466;2022-11-14T17:02:00;10.68;;;6.00;;
63114;SDS011;49208;50.874;6.466;2022-11-14T17:04:26;8.60;;;5.20;;
63114;SDS011;49208;50.874;6.466;2022-11-14T17:06:51;10.13;;;5.53;;
63114;SDS011;49208;50.874;6.466;2022-11-14T17:09:17;12.77;;;6.28;;
63114;SDS011;49208;50.874;6.466;2022-11-14T17:11:42;9.85;;;5.05;;
63114;SDS011;49208;50.874;6.466;2022-11-14T17:14:08;7.95;;;5.22;;
63114;SDS011;49208;50.874;6.466;2022-11-14T17:16:34;10.57;;;5.78;;
63114;SDS011;49208;50.874;6.466;2022-11-14T17:18:59;8.70;;;5.25;;
63114;SDS011;49208;50.874;6.466;2022-11-14T17:21:25;8.65;;;4.90;;
63114;SDS011;49208;50.874;6.466;2022-11-14T17:23:52;8.70;;;5.20;;
63114;SDS011;49208;50.874;6.466;2022-11-14T17:26:20;10.40;;;5.20;;
63114;SDS011;49208;50.874;6.466;2022-11-14T17:28:45;9.63;;;5.25;;
63114;SDS011;49208;50.874;6.466;2022-11-14T17:31:11;10.65;;;5.40;;
63114;SDS011;49208;50.874;6.466;2022-11-14T17:33:36;9.50;;;5.32;;
63114;SDS011;49208;50.874;6.466;2022-11-14T17:36:05;9.10;;;5.80;;
63114;SDS011;49208;50.874;6.466;2022-11-14T17:38:33;9.70;;;5.22;;
63114;SDS011;49208;50.874;6.466;2022-11-14T17:40:59;8.40;;;4.97;;
63114;SDS011;49208;50.874;6.466;2022-11-14T17:43:25;10.75;;;5.78;;
63114;SDS011;49208;50.874;6.466;2022-11-14T17:45:56;13.27;;;6.75;;
63114;SDS011;49208;50.874;6.466;2022-11-14T17:48:22;9.55;;;5.97;;
63114;SDS011;49208;50.874;6.466;2022-11-14T17:50:48;10.88;;;6.55;;
63114;SDS011;49208;50.874;6.466;2022-11-14T17:53:13;10.13;;;6.38;;
63114;SDS011;49208;50.874;6.466;2022-11-14T17:55:39;9.95;;;5.57;;
63114;SDS011;49208;50.874;6.466;2022-11-14T17:58:04;10.43;;;5.82;;
63114;SDS011;49208;50.874;6.466;2022-11-14T18:00:30;9.20;;;5.03;;
63114;SDS011;49208;50.874;6.466;2022-11-14T18:02:55;11.23;;;5.93;;
63114;SDS011;49208;50.874;6.466;2022-11-14T18:05:20;11.60;;;6.15;;
63114;SDS011;49208;50.874;6.466;2022-11-14T18:07:46;13.13;;;7.18;;
63114;SDS011;49208;50.874;6.466;2022-11-14T18:10:11;15.75;;;8.80;;
63114;SDS011;49208;50.874;6.466;2022-11-14T18:12:37;13.50;;;8.63;;
63114;SDS011;49208;50.874;6.466;2022-11-14T18:15:02;14.75;;;7.93;;
63114;SDS011;49208;50.874;6.466;2022-11-14T18:17:28;15.27;;;6.97;;
63114;SDS011;49208;50.874;6.466;2022-11-14T18:19:53;11.32;;;6.07;;
63114;SDS011;49208;50.874;6.466;2022-11-14T18:22:20;12.60;;;7.35;;
63114;SDS011;49208;50.874;6.466;2022-11-14T18:24:45;10.70;;;6.25;;
63114;SDS011;49208;50.874;6.466;2022-11-14T18:27:11;11.32;;;6.93;;
63114;SDS011;49208;50.874;6.466;2022-11-14T18:29:38;11.90;;;7.10;;
63114;SDS011;49208;50.874;6.466;2022-11-14T18:32:03;12.90;;;7.50;;
63114;SDS011;49208;50.874;6.466;2022-11-14T18:34:28;10.85;;;6.47;;
63114;SDS011;49208;50.874;6.466;2022-11-14T18:36:54;10.63;;;6.88;;
63114;SDS011;49208;50.874;6.466;2022-11-14T18:39:19;10.07;;;6.30;;
63114;SDS011;49208;50.874;6.466;2022-11-14T18:41:44;10.57;;;6.93;;
63114;SDS011;49208;50.874;6.466;2022-11-14T18:44:10;10.27;;;6.35;;
63114;SDS011;49208;50.874;6.466;2022-11-14T18:46:35;13.50;;;7.28;;
63114;SDS011;49208;50.874;6.466;2022-11-14T18:49:01;11.63;;;7.10;;
63114;SDS011;49208;50.874;6.466;2022-11-14T18:51:27;13.95;;;7.03;;
63114;SDS011;49208;50.874;6.466;2022-11-14T18:53:54;19.63;;;10.85;;
63114;SDS011;49208;50.874;6.466;2022-11-14T18:56:22;16.63;;;10.52;;
63114;SDS011;49208;50.874;6.466;2022-11-14T18:58:55;13.50;;;7.95;;
63114;SDS011;49208;50.874;6.466;2022-11-14T19:01:22;16.63;;;9.40;;
63114;SDS011;49208;50.874;6.466;2022-11-14T19:03:50;18.35;;;8.98;;
63114;SDS011;49208;50.874;6.466;2022-11-14T19:06:19;17.50;;;9.70;;
63114;SDS011;49208;50.874;6.466;2022-11-14T19:08:44;16.33;;;9.20;;
63114;SDS011;49208;50.874;6.466;2022-11-14T19:11:10;16.80;;;8.63;;
63114;SDS011;49208;50.874;6.466;2022-11-14T19:13:59;15.05;;;8.77;;
63114;SDS011;49208;50.874;6.466;2022-11-14T19:16:26;18.70;;;8.95;;
63114;SDS011;49208;50.874;6.466;2022-11-14T19:18:51;14.60;;;8.43;;
63114;SDS011;49208;50.874;6.466;2022-11-14T19:21:18;15.50;;;8.73;;
63114;SDS011;49208;50.874;6.466;2022-11-14T19:23:43;11.98;;;7.45;;
63114;SDS011;49208;50.874;6.466;2022-11-14T19:26:09;14.90;;;8.02;;
63114;SDS011;49208;50.874;6.466;2022-11-14T19:28:35;16.98;;;7.63;;
63114;SDS011;49208;50.874;6.466;2022-11-14T19:31:04;14.50;;;8.18;;
63114;SDS011;49208;50.874;6.466;2022-11-14T19:33:30;15.88;;;8.00;;
63114;SDS011;49208;50.874;6.466;2022-11-14T19:35:56;15.23;;;7.22;;
63114;SDS011;49208;50.874;6.466;2022-11-14T19:38:22;13.25;;;7.35;;
63114;SDS011;49208;50.874;6.466;2022-11-14T19:40:48;13.82;;;7.50;;
63114;SDS011;49208;50.874;6.466;2022-11-14T19:43:17;12.75;;;7.50;;
63114;SDS011;49208;50.874;6.466;2022-11-14T19:45:44;15.80;;;8.98;;
63114;SDS011;49208;50.874;6.466;2022-11-14T19:48:10;15.50;;;7.97;;
63114;SDS011;49208;50.874;6.466;2022-11-14T19:50:35;15.82;;;8.10;;
63114;SDS011;49208;50.874;6.466;2022-11-14T19:53:01;15.27;;;7.85;;
63114;SDS011;49208;50.874;6.466;2022-11-14T19:55:28;14.02;;;7.28;;
63114;SDS011;49208;50.874;6.466;2022-11-14T19:57:53;15.13;;;9.00;;
63114;SDS011;49208;50.874;6.466;2022-11-14T20:00:19;14.55;;;7.32;;
63114;SDS011;49208;50.874;6.466;2022-11-14T20:02:45;14.52;;;7.00;;
63114;SDS011;49208;50.874;6.466;2022-11-14T20:05:10;13.88;;;7.45;;
63114;SDS011;49208;50.874;6.466;2022-11-14T20:07:36;12.80;;;7.50;;
63114;SDS011;49208;50.874;6.466;2022-11-14T20:10:02;17.20;;;8.60;;
63114;SDS011;49208;50.874;6.466;2022-11-14T20:12:30;15.07;;;7.60;;
63114;SDS011;49208;50.874;6.466;2022-11-14T20:14:56;17.00;;;8.80;;
63114;SDS011;49208;50.874;6.466;2022-11-14T20:17:22;15.18;;;8.10;;
63114;SDS011;49208;50.874;6.466;2022-11-14T20:19:48;14.15;;;7.00;;
63114;SDS011;49208;50.874;6.466;2022-11-14T20:22:14;17.75;;;8.60;;
63114;SDS011;49208;50.874;6.466;2022-11-14T20:24:41;14.45;;;7.55;;
63114;SDS011;49208;50.874;6.466;2022-11-14T20:27:07;18.77;;;8.88;;
63114;SDS011;49208;50.874;6.466;2022-11-14T20:29:32;19.48;;;11.70;;
63114;SDS011;49208;50.874;6.466;2022-11-14T20:31:58;21.17;;;10.90;;
63114;SDS011;49208;50.874;6.466;2022-11-14T20:34:24;17.40;;;10.23;;
63114;SDS011;49208;50.874;6.466;2022-11-14T20:36:49;14.65;;;7.47;;
63114;SDS011;49208;50.874;6.466;2022-11-14T20:39:15;15.98;;;7.85;;
63114;SDS011;49208;50.874;6.466;2022-11-14T20:41:41;16.58;;;8.23;;
63114;SDS011;49208;50.874;6.466;2022-11-14T20:44:06;17.65;;;9.25;;
63114;SDS011;49208;50.874;6.466;2022-11-14T20:46:32;17.95;;;8.98;;
63114;SDS011;49208;50.874;6.466;2022-11-14T20:48:57;15.05;;;7.78;;
63114;SDS011;49208;50.874;6.466;2022-11-14T20:51:23;15.90;;;8.23;;
63114;SDS011;49208;50.874;6.466;2022-11-14T20:53:50;16.48;;;8.65;;
63114;SDS011;49208;50.874;6.466;2022-11-14T20:56:17;14.50;;;8.27;;
63114;SDS011;49208;50.874;6.466;2022-11-14T20:58:44;15.68;;;8.65;;
63114;SDS011;49208;50.874;6.466;2022-11-14T21:01:11;19.17;;;9.63;;
63114;SDS011;49208;50.874;6.466;2022-11-14T21:03:37;14.63;;;9.23;;
63114;SDS011;49208;50.874;6.466;2022-11-14T21:06:03;13.77;;;8.63;;
63114;SDS011;49208;50.874;6.466;2022-11-14T21:08:31;16.20;;;8.43;;
63114;SDS011;49208;50.874;6.466;2022-11-14T21:10:59;16.95;;;7.63;;
63114;SDS011;49208;50.874;6.466;2022-11-14T21:13:29;18.63;;;7.82;;
63114;SDS011;49208;50.874;6.466;2022-11-14T21:16:14;16.65;;;9.25;;
63114;SDS011;49208;50.874;6.466;2022-11-14T21:18:42;16.80;;;9.10;;
63114;SDS011;49208;50.874;6.466;2022-11-14T21:21:09;15.15;;;8.55;;
63114;SDS011;49208;50.874;6.466;2022-11-14T21:23:42;15.85;;;8.23;;
63114;SDS011;49208;50.874;6.466;2022-11-14T21:26:15;14.50;;;8.93;;
63114;SDS011;49208;50.874;6.466;2022-11-14T21:28:50;16.52;;;8.50;;
63114;SDS011;49208;50.874;6.466;2022-11-14T21:31:21;16.50;;;8.48;;
63114;SDS011;49208;50.874;6.466;2022-11-14T21:33:47;14.98;;;7.93;;
63114;SDS011;49208;50.874;6.466;2022-11-14T21:36:15;17.70;;;8.75;;
63114;SDS011;49208;50.874;6.466;2022-11-14T21:38:41;17.02;;;8.73;;
63114;SDS011;49208;50.874;6.466;2022-11-14T21:41:09;15.50;;;8.88;;
63114;SDS011;49208;50.874;6.466;2022-11-14T21:43:35;21.10;;;9.35;;
63114;SDS011;49208;50.874;6.466;2022-11-14T21:46:02;18.70;;;9.23;;
63114;SDS011;49208;50.874;6.466;2022-11-14T21:48:31;16.77;;;8.93;;
63114;SDS011;49208;50.874;6.466;2022-11-14T21:51:05;19.55;;;9.95;;
63114;SDS011;49208;50.874;6.466;2022-11-14T21:53:32;19.35;;;9.60;;
63114;SDS011;49208;50.874;6.466;2022-11-14T21:55:58;19.88;;;9.25;;
63114;SDS011;49208;50.874;6.466;2022-11-14T21:58:23;21.30;;;10.60;;
63114;SDS011;49208;50.874;6.466;2022-11-14T22:00:49;18.40;;;10.25;;
63114;SDS011;49208;50.874;6.466;2022-11-14T22:03:14;18.90;;;10.43;;
63114;SDS011;49208;50.874;6.466;2022-11-14T22:05:59;18.58;;;9.10;;
63114;SDS011;49208;50.874;6.466;2022-11-14T22:08:26;18.27;;;9.50;;
63114;SDS011;49208;50.874;6.466;2022-11-14T22:10:52;17.52;;;9.27;;
63114;SDS011;49208;50.874;6.466;2022-11-14T22:13:18;16.42;;;9.02;;
63114;SDS011;49208;50.874;6.466;2022-11-14T22:15:43;21.23;;;10.60;;
63114;SDS011;49208;50.874;6.466;2022-11-14T22:18:08;15.07;;;9.82;;
63114;SDS011;49208;50.874;6.466;2022-11-14T22:20:34;17.20;;;9.63;;
63114;SDS011;49208;50.874;6.466;2022-11-14T22:22:59;15.63;;;9.18;;
63114;SDS011;49208;50.874;6.466;2022-11-14T22:25:24;15.40;;;8.20;;
63114;SDS011;49208;50.874;6.466;2022-11-14T22:27:53;15.75;;;8.68;;
63114;SDS011;49208;50.874;6.466;2022-11-14T22:30:18;17.88;;;8.68;;
63114;SDS011;49208;50.874;6.466;2022-11-14T22:32:44;18.02;;;9.13;;
63114;SDS011;49208;50.874;6.466;2022-11-14T22:35:09;16.75;;;8.68;;
63114;SDS011;49208;50.874;6.466;2022-11-14T22:37:34;19.38;;;9.20;;
63114;SDS011;49208;50.874;6.466;2022-11-14T22:40:00;18.67;;;10.20;;
63114;SDS011;49208;50.874;6.466;2022-11-14T22:42:25;18.13;;;10.13;;
63114;SDS011;49208;50.874;6.466;2022-11-14T22:44:51;17.92;;;8.50;;
63114;SDS011;49208;50.874;6.466;2022-11-14T22:47:16;16.67;;;9.75;;
63114;SDS011;49208;50.874;6.466;2022-11-14T22:49:41;17.23;;;9.32;;
63114;SDS011;49208;50.874;6.466;2022-11-14T22:52:07;16.98;;;9.30;;
63114;SDS011;49208;50.874;6.466;2022-11-14T22:54:32;18.10;;;10.27;;
63114;SDS011;49208;50.874;6.466;2022-11-14T22:56:57;16.60;;;9.32;;
63114;SDS011;49208;50.874;6.466;2022-11-14T22:59:23;16.50;;;8.35;;